Terminal Aerodrome Forecast
Issued by NWS Cleveland, OH

Home | Current Version | Previous Version | Graphics & Text | Print | Product List | Glossary On
Versions: 1 2 3 4 5 6 7 8 9 10 11 12 13 14 15 16 17 18 19
000
FTUS41 KCLE 020249 AAA
TAFTOL
TAF AMD
KTOL 020249Z 0203/0224 08010KT 5SM BR OVC008
     FM020430 06008KT 2SM -RA BR OVC004
     FM020900 02008KT 4SM BR OVC004
     FM021500 04008KT P6SM OVC006
     FM022000 06006KT P6SM OVC012=

USA.gov is the U.S. government's official web portal to all federal, state and local government web resources and services.